sensor_id;sensor_type;location;lat;lon;timestamp;P1;durP1;ratioP1;P2;durP2;ratioP2
4462;SDS011;2244;50.200;8.220;2023-02-21T00:00:26;36.80;;;18.47;;
4462;SDS011;2244;50.200;8.220;2023-02-21T00:03:12;31.23;;;15.27;;
4462;SDS011;2244;50.200;8.220;2023-02-21T00:05:57;38.13;;;18.27;;
4462;SDS011;2244;50.200;8.220;2023-02-21T00:08:42;32.20;;;16.20;;
4462;SDS011;2244;50.200;8.220;2023-02-21T00:11:28;32.77;;;15.30;;
4462;SDS011;2244;50.200;8.220;2023-02-21T00:14:13;30.90;;;14.53;;
4462;SDS011;2244;50.200;8.220;2023-02-21T00:16:58;35.40;;;15.97;;
4462;SDS011;2244;50.200;8.220;2023-02-21T00:19:44;32.93;;;13.93;;
4462;SDS011;2244;50.200;8.220;2023-02-21T00:22:29;29.00;;;13.97;;
4462;SDS011;2244;50.200;8.220;2023-02-21T00:25:14;28.23;;;14.30;;
4462;SDS011;2244;50.200;8.220;2023-02-21T00:27:59;32.47;;;13.80;;
4462;SDS011;2244;50.200;8.220;2023-02-21T00:30:44;28.73;;;13.80;;
4462;SDS011;2244;50.200;8.220;2023-02-21T00:33:30;28.83;;;14.10;;
4462;SDS011;2244;50.200;8.220;2023-02-21T00:36:15;28.03;;;13.10;;
4462;SDS011;2244;50.200;8.220;2023-02-21T00:39:01;26.33;;;12.73;;
4462;SDS011;2244;50.200;8.220;2023-02-21T00:41:46;24.37;;;12.70;;
4462;SDS011;2244;50.200;8.220;2023-02-21T00:44:32;30.57;;;13.47;;
4462;SDS011;2244;50.200;8.220;2023-02-21T00:47:17;26.93;;;12.07;;
4462;SDS011;2244;50.200;8.220;2023-02-21T00:50:03;26.40;;;12.10;;
4462;SDS011;2244;50.200;8.220;2023-02-21T00:52:48;26.70;;;13.00;;
4462;SDS011;2244;50.200;8.220;2023-02-21T00:55:33;28.07;;;11.80;;
4462;SDS011;2244;50.200;8.220;2023-02-21T00:58:22;24.03;;;12.37;;
4462;SDS011;2244;50.200;8.220;2023-02-21T01:01:07;28.70;;;12.50;;
4462;SDS011;2244;50.200;8.220;2023-02-21T01:03:52;23.93;;;11.63;;
4462;SDS011;2244;50.200;8.220;2023-02-21T01:06:37;23.90;;;12.30;;
4462;SDS011;2244;50.200;8.220;2023-02-21T01:09:22;25.83;;;12.40;;
4462;SDS011;2244;50.200;8.220;2023-02-21T01:12:07;23.63;;;12.37;;
4462;SDS011;2244;50.200;8.220;2023-02-21T01:14:53;29.33;;;12.20;;
4462;SDS011;2244;50.200;8.220;2023-02-21T01:17:38;25.20;;;11.80;;
4462;SDS011;2244;50.200;8.220;2023-02-21T01:20:23;22.03;;;11.87;;
4462;SDS011;2244;50.200;8.220;2023-02-21T01:23:08;28.10;;;12.67;;
4462;SDS011;2244;50.200;8.220;2023-02-21T01:25:54;23.03;;;11.67;;
4462;SDS011;2244;50.200;8.220;2023-02-21T01:28:39;23.80;;;12.20;;
4462;SDS011;2244;50.200;8.220;2023-02-21T01:31:24;22.43;;;11.93;;
4462;SDS011;2244;50.200;8.220;2023-02-21T01:34:09;23.43;;;11.20;;
4462;SDS011;2244;50.200;8.220;2023-02-21T01:36:55;25.40;;;12.77;;
4462;SDS011;2244;50.200;8.220;2023-02-21T01:39:40;26.83;;;12.60;;
4462;SDS011;2244;50.200;8.220;2023-02-21T01:42:25;30.17;;;13.70;;
4462;SDS011;2244;50.200;8.220;2023-02-21T01:48:10;25.80;;;13.50;;
4462;SDS011;2244;50.200;8.220;2023-02-21T01:50:54;28.97;;;13.73;;
4462;SDS011;2244;50.200;8.220;2023-02-21T01:53:41;30.13;;;14.00;;
4462;SDS011;2244;50.200;8.220;2023-02-21T01:56:27;26.10;;;13.90;;
4462;SDS011;2244;50.200;8.220;2023-02-21T01:59:12;23.90;;;13.10;;
4462;SDS011;2244;50.200;8.220;2023-02-21T02:02:01;26.40;;;12.37;;
4462;SDS011;2244;50.200;8.220;2023-02-21T02:04:45;31.17;;;12.37;;
4462;SDS011;2244;50.200;8.220;2023-02-21T02:07:31;28.40;;;12.73;;
4462;SDS011;2244;50.200;8.220;2023-02-21T02:10:17;28.33;;;13.00;;
4462;SDS011;2244;50.200;8.220;2023-02-21T02:16:00;27.00;;;13.00;;
4462;SDS011;2244;50.200;8.220;2023-02-21T02:18:34;26.00;;;13.10;;
4462;SDS011;2244;50.200;8.220;2023-02-21T02:21:12;29.73;;;14.40;;
4462;SDS011;2244;50.200;8.220;2023-02-21T02:23:47;26.03;;;13.03;;
4462;SDS011;2244;50.200;8.220;2023-02-21T02:31:48;32.27;;;13.70;;
4462;SDS011;2244;50.200;8.220;2023-02-21T02:37:04;26.93;;;15.17;;
4462;SDS011;2244;50.200;8.220;2023-02-21T02:39:44;30.40;;;14.57;;
4462;SDS011;2244;50.200;8.220;2023-02-21T02:42:28;24.40;;;12.90;;
4462;SDS011;2244;50.200;8.220;2023-02-21T02:44:59;31.03;;;13.77;;
4462;SDS011;2244;50.200;8.220;2023-02-21T02:47:26;28.20;;;15.77;;
4462;SDS011;2244;50.200;8.220;2023-02-21T02:49:51;24.87;;;13.50;;
4462;SDS011;2244;50.200;8.220;2023-02-21T02:52:20;26.13;;;15.20;;
4462;SDS011;2244;50.200;8.220;2023-02-21T02:55:01;30.50;;;15.03;;
4462;SDS011;2244;50.200;8.220;2023-02-21T02:57:29;29.77;;;15.27;;
4462;SDS011;2244;50.200;8.220;2023-02-21T02:59:59;32.07;;;15.37;;
4462;SDS011;2244;50.200;8.220;2023-02-21T03:02:33;29.53;;;15.97;;
4462;SDS011;2244;50.200;8.220;2023-02-21T03:05:09;28.60;;;14.43;;
4462;SDS011;2244;50.200;8.220;2023-02-21T03:07:43;26.40;;;15.10;;
4462;SDS011;2244;50.200;8.220;2023-02-21T03:13:03;29.40;;;15.43;;
4462;SDS011;2244;50.200;8.220;2023-02-21T03:18:01;27.77;;;15.57;;
4462;SDS011;2244;50.200;8.220;2023-02-21T03:20:30;27.57;;;14.70;;
4462;SDS011;2244;50.200;8.220;2023-02-21T03:22:59;31.30;;;14.77;;
4462;SDS011;2244;50.200;8.220;2023-02-21T03:25:27;26.97;;;14.50;;
4462;SDS011;2244;50.200;8.220;2023-02-21T03:27:55;24.57;;;14.20;;
4462;SDS011;2244;50.200;8.220;2023-02-21T03:30:23;24.60;;;14.13;;
4462;SDS011;2244;50.200;8.220;2023-02-21T03:32:51;29.17;;;15.40;;
4462;SDS011;2244;50.200;8.220;2023-02-21T03:35:19;27.43;;;14.73;;
4462;SDS011;2244;50.200;8.220;2023-02-21T03:37:50;26.93;;;15.00;;
4462;SDS011;2244;50.200;8.220;2023-02-21T03:40:20;28.67;;;15.20;;
4462;SDS011;2244;50.200;8.220;2023-02-21T03:42:49;28.60;;;14.10;;
4462;SDS011;2244;50.200;8.220;2023-02-21T03:45:17;26.73;;;14.70;;
4462;SDS011;2244;50.200;8.220;2023-02-21T03:47:44;30.27;;;15.27;;
4462;SDS011;2244;50.200;8.220;2023-02-21T03:50:12;25.10;;;13.77;;
4462;SDS011;2244;50.200;8.220;2023-02-21T03:52:39;27.67;;;15.10;;
4462;SDS011;2244;50.200;8.220;2023-02-21T03:55:07;23.93;;;13.17;;
4462;SDS011;2244;50.200;8.220;2023-02-21T03:57:35;23.70;;;12.87;;
4462;SDS011;2244;50.200;8.220;2023-02-21T04:00:02;26.43;;;12.80;;
4462;SDS011;2244;50.200;8.220;2023-02-21T04:02:30;28.33;;;14.87;;
4462;SDS011;2244;50.200;8.220;2023-02-21T04:04:57;25.67;;;14.00;;
4462;SDS011;2244;50.200;8.220;2023-02-21T04:07:25;31.57;;;13.80;;
4462;SDS011;2244;50.200;8.220;2023-02-21T04:09:53;27.93;;;14.13;;
4462;SDS011;2244;50.200;8.220;2023-02-21T04:12:20;22.70;;;12.73;;
4462;SDS011;2244;50.200;8.220;2023-02-21T04:14:48;25.30;;;13.10;;
4462;SDS011;2244;50.200;8.220;2023-02-21T04:17:17;27.50;;;14.20;;
4462;SDS011;2244;50.200;8.220;2023-02-21T04:19:44;29.43;;;14.27;;
4462;SDS011;2244;50.200;8.220;2023-02-21T04:22:11;26.03;;;12.70;;
4462;SDS011;2244;50.200;8.220;2023-02-21T04:24:39;27.20;;;12.93;;
4462;SDS011;2244;50.200;8.220;2023-02-21T04:27:07;28.90;;;14.13;;
4462;SDS011;2244;50.200;8.220;2023-02-21T04:29:34;25.40;;;13.43;;
4462;SDS011;2244;50.200;8.220;2023-02-21T04:32:02;28.10;;;14.70;;
4462;SDS011;2244;50.200;8.220;2023-02-21T04:34:29;30.70;;;14.70;;
4462;SDS011;2244;50.200;8.220;2023-02-21T04:36:56;28.13;;;13.83;;
4462;SDS011;2244;50.200;8.220;2023-02-21T04:39:24;27.30;;;15.13;;
4462;SDS011;2244;50.200;8.220;2023-02-21T04:41:51;29.33;;;15.20;;
4462;SDS011;2244;50.200;8.220;2023-02-21T04:44:19;26.87;;;14.87;;
4462;SDS011;2244;50.200;8.220;2023-02-21T04:46:46;25.70;;;14.77;;
4462;SDS011;2244;50.200;8.220;2023-02-21T04:49:14;29.17;;;16.30;;
4462;SDS011;2244;50.200;8.220;2023-02-21T04:51:41;28.97;;;15.20;;
4462;SDS011;2244;50.200;8.220;2023-02-21T04:54:09;26.93;;;15.17;;
4462;SDS011;2244;50.200;8.220;2023-02-21T04:56:37;28.93;;;15.03;;
4462;SDS011;2244;50.200;8.220;2023-02-21T04:59:05;26.67;;;13.60;;
4462;SDS011;2244;50.200;8.220;2023-02-21T05:01:32;25.67;;;14.37;;
4462;SDS011;2244;50.200;8.220;2023-02-21T05:04:00;27.93;;;14.30;;
4462;SDS011;2244;50.200;8.220;2023-02-21T05:06:28;29.00;;;15.67;;
4462;SDS011;2244;50.200;8.220;2023-02-21T05:08:56;28.73;;;15.67;;
4462;SDS011;2244;50.200;8.220;2023-02-21T05:11:23;27.87;;;12.80;;
4462;SDS011;2244;50.200;8.220;2023-02-21T05:13:51;26.93;;;15.00;;
4462;SDS011;2244;50.200;8.220;2023-02-21T05:16:19;27.93;;;15.07;;
4462;SDS011;2244;50.200;8.220;2023-02-21T05:18:47;27.80;;;14.00;;
4462;SDS011;2244;50.200;8.220;2023-02-21T05:21:15;30.50;;;14.10;;
4462;SDS011;2244;50.200;8.220;2023-02-21T05:23:42;29.30;;;15.10;;
4462;SDS011;2244;50.200;8.220;2023-02-21T05:26:12;28.30;;;14.03;;
4462;SDS011;2244;50.200;8.220;2023-02-21T05:28:39;29.60;;;16.13;;
4462;SDS011;2244;50.200;8.220;2023-02-21T05:31:07;29.90;;;15.50;;
4462;SDS011;2244;50.200;8.220;2023-02-21T05:33:35;30.40;;;15.80;;
4462;SDS011;2244;50.200;8.220;2023-02-21T05:36:02;27.77;;;14.63;;
4462;SDS011;2244;50.200;8.220;2023-02-21T05:38:29;35.20;;;16.60;;
4462;SDS011;2244;50.200;8.220;2023-02-21T05:40:57;32.20;;;16.20;;
4462;SDS011;2244;50.200;8.220;2023-02-21T05:43:24;29.20;;;14.70;;
4462;SDS011;2244;50.200;8.220;2023-02-21T05:45:53;35.83;;;16.53;;
4462;SDS011;2244;50.200;8.220;2023-02-21T05:48:22;29.17;;;16.00;;
4462;SDS011;2244;50.200;8.220;2023-02-21T05:50:49;33.17;;;15.70;;
4462;SDS011;2244;50.200;8.220;2023-02-21T05:53:16;30.60;;;15.50;;
4462;SDS011;2244;50.200;8.220;2023-02-21T05:55:44;31.50;;;15.83;;
4462;SDS011;2244;50.200;8.220;2023-02-21T05:58:11;27.60;;;15.00;;
4462;SDS011;2244;50.200;8.220;2023-02-21T06:00:38;28.87;;;14.10;;
4462;SDS011;2244;50.200;8.220;2023-02-21T06:03:06;29.67;;;15.47;;
4462;SDS011;2244;50.200;8.220;2023-02-21T06:05:34;35.47;;;17.10;;
4462;SDS011;2244;50.200;8.220;2023-02-21T06:08:01;33.00;;;15.10;;
4462;SDS011;2244;50.200;8.220;2023-02-21T06:10:28;28.00;;;15.17;;
4462;SDS011;2244;50.200;8.220;2023-02-21T06:12:56;28.67;;;14.10;;
4462;SDS011;2244;50.200;8.220;2023-02-21T06:15:23;33.70;;;17.97;;
4462;SDS011;2244;50.200;8.220;2023-02-21T06:17:51;28.10;;;15.30;;
4462;SDS011;2244;50.200;8.220;2023-02-21T06:20:18;34.30;;;15.70;;
4462;SDS011;2244;50.200;8.220;2023-02-21T06:22:45;27.87;;;14.23;;
4462;SDS011;2244;50.200;8.220;2023-02-21T06:25:14;31.00;;;17.40;;
4462;SDS011;2244;50.200;8.220;2023-02-21T06:27:42;30.90;;;15.30;;
4462;SDS011;2244;50.200;8.220;2023-02-21T06:30:10;31.87;;;16.00;;
4462;SDS011;2244;50.200;8.220;2023-02-21T06:32:37;28.93;;;15.60;;
4462;SDS011;2244;50.200;8.220;2023-02-21T06:35:05;36.40;;;17.50;;
4462;SDS011;2244;50.200;8.220;2023-02-21T06:37:32;32.80;;;16.23;;
4462;SDS011;2244;50.200;8.220;2023-02-21T06:39:59;35.80;;;17.27;;
4462;SDS011;2244;50.200;8.220;2023-02-21T06:42:27;37.33;;;17.80;;
4462;SDS011;2244;50.200;8.220;2023-02-21T06:44:55;34.53;;;16.00;;
4462;SDS011;2244;50.200;8.220;2023-02-21T06:47:22;29.27;;;15.40;;
4462;SDS011;2244;50.200;8.220;2023-02-21T06:49:50;33.13;;;17.30;;
4462;SDS011;2244;50.200;8.220;2023-02-21T06:52:17;26.93;;;14.53;;
4462;SDS011;2244;50.200;8.220;2023-02-21T06:54:44;32.03;;;15.00;;
4462;SDS011;2244;50.200;8.220;2023-02-21T06:57:12;32.87;;;14.60;;
4462;SDS011;2244;50.200;8.220;2023-02-21T06:59:39;34.37;;;15.23;;
4462;SDS011;2244;50.200;8.220;2023-02-21T07:02:07;36.23;;;18.27;;
4462;SDS011;2244;50.200;8.220;2023-02-21T07:04:35;29.33;;;15.57;;
4462;SDS011;2244;50.200;8.220;2023-02-21T07:07:04;27.13;;;14.10;;
4462;SDS011;2244;50.200;8.220;2023-02-21T07:09:31;28.60;;;15.70;;
4462;SDS011;2244;50.200;8.220;2023-02-21T07:11:58;32.60;;;17.37;;
4462;SDS011;2244;50.200;8.220;2023-02-21T07:14:26;33.33;;;15.23;;
4462;SDS011;2244;50.200;8.220;2023-02-21T07:16:53;33.27;;;16.70;;
4462;SDS011;2244;50.200;8.220;2023-02-21T07:19:20;29.50;;;14.53;;
4462;SDS011;2244;50.200;8.220;2023-02-21T07:21:48;27.30;;;15.00;;
4462;SDS011;2244;50.200;8.220;2023-02-21T07:24:16;32.37;;;15.13;;
4462;SDS011;2244;50.200;8.220;2023-02-21T07:26:43;34.70;;;16.77;;
4462;SDS011;2244;50.200;8.220;2023-02-21T07:29:10;35.83;;;17.30;;
4462;SDS011;2244;50.200;8.220;2023-02-21T07:31:44;30.97;;;16.87;;
4462;SDS011;2244;50.200;8.220;2023-02-21T07:34:10;27.60;;;14.77;;
4462;SDS011;2244;50.200;8.220;2023-02-21T07:36:37;30.52;;;16.77;;
4462;SDS011;2244;50.200;8.220;2023-02-21T07:39:06;36.00;;;17.33;;
4462;SDS011;2244;50.200;8.220;2023-02-21T07:41:33;37.27;;;19.20;;
4462;SDS011;2244;50.200;8.220;2023-02-21T07:44:00;32.57;;;16.83;;
4462;SDS011;2244;50.200;8.220;2023-02-21T07:46:28;33.33;;;18.67;;
4462;SDS011;2244;50.200;8.220;2023-02-21T07:48:55;32.57;;;17.00;;
4462;SDS011;2244;50.200;8.220;2023-02-21T07:51:25;33.77;;;17.50;;
4462;SDS011;2244;50.200;8.220;2023-02-21T07:53:52;30.87;;;15.90;;
4462;SDS011;2244;50.200;8.220;2023-02-21T07:56:19;30.83;;;16.17;;
4462;SDS011;2244;50.200;8.220;2023-02-21T07:58:47;31.73;;;17.33;;
4462;SDS011;2244;50.200;8.220;2023-02-21T08:01:15;31.03;;;16.30;;
4462;SDS011;2244;50.200;8.220;2023-02-21T08:03:43;36.60;;;18.50;;
4462;SDS011;2244;50.200;8.220;2023-02-21T08:06:10;34.53;;;16.83;;
4462;SDS011;2244;50.200;8.220;2023-02-21T08:08:37;29.50;;;15.57;;
4462;SDS011;2244;50.200;8.220;2023-02-21T08:11:05;26.57;;;14.67;;
4462;SDS011;2244;50.200;8.220;2023-02-21T08:13:32;31.47;;;16.00;;
4462;SDS011;2244;50.200;8.220;2023-02-21T08:16:00;26.83;;;14.70;;
4462;SDS011;2244;50.200;8.220;2023-02-21T08:18:27;31.27;;;15.13;;
4462;SDS011;2244;50.200;8.220;2023-02-21T08:20:54;27.97;;;15.77;;
4462;SDS011;2244;50.200;8.220;2023-02-21T08:23:25;32.50;;;15.80;;
4462;SDS011;2244;50.200;8.220;2023-02-21T08:25:52;26.67;;;14.27;;
4462;SDS011;2244;50.200;8.220;2023-02-21T08:28:19;27.37;;;14.50;;
4462;SDS011;2244;50.200;8.220;2023-02-21T08:30:47;29.83;;;15.10;;
4462;SDS011;2244;50.200;8.220;2023-02-21T08:33:14;25.13;;;13.90;;
4462;SDS011;2244;50.200;8.220;2023-02-21T08:35:41;28.73;;;14.40;;
4462;SDS011;2244;50.200;8.220;2023-02-21T08:38:09;27.53;;;14.27;;
4462;SDS011;2244;50.200;8.220;2023-02-21T08:40:36;26.83;;;14.10;;
4462;SDS011;2244;50.200;8.220;2023-02-21T08:43:03;23.33;;;13.73;;
4462;SDS011;2244;50.200;8.220;2023-02-21T08:45:31;27.00;;;12.27;;
4462;SDS011;2244;50.200;8.220;2023-02-21T08:47:58;26.50;;;13.07;;
4462;SDS011;2244;50.200;8.220;2023-02-21T08:50:26;25.93;;;13.03;;
4462;SDS011;2244;50.200;8.220;2023-02-21T08:52:54;23.57;;;12.33;;
4462;SDS011;2244;50.200;8.220;2023-02-21T08:55:21;23.40;;;12.97;;
4462;SDS011;2244;50.200;8.220;2023-02-21T08:57:50;21.13;;;11.80;;
4462;SDS011;2244;50.200;8.220;2023-02-21T09:00:18;22.57;;;12.10;;
4462;SDS011;2244;50.200;8.220;2023-02-21T09:02:52;21.83;;;11.93;;
4462;SDS011;2244;50.200;8.220;2023-02-21T09:05:17;24.60;;;11.40;;
4462;SDS011;2244;50.200;8.220;2023-02-21T09:07:49;21.70;;;12.27;;
4462;SDS011;2244;50.200;8.220;2023-02-21T09:10:17;21.70;;;11.87;;
4462;SDS011;2244;50.200;8.220;2023-02-21T09:12:44;23.30;;;10.30;;
4462;SDS011;2244;50.200;8.220;2023-02-21T09:15:15;21.70;;;11.17;;
4462;SDS011;2244;50.200;8.220;2023-02-21T09:17:42;26.47;;;11.00;;
4462;SDS011;2244;50.200;8.220;2023-02-21T09:20:12;21.43;;;10.67;;
4462;SDS011;2244;50.200;8.220;2023-02-21T09:22:41;19.27;;;10.60;;
4462;SDS011;2244;50.200;8.220;2023-02-21T09:25:08;19.87;;;9.57;;
4462;SDS011;2244;50.200;8.220;2023-02-21T09:27:38;21.67;;;11.00;;
4462;SDS011;2244;50.200;8.220;2023-02-21T09:30:06;21.93;;;10.57;;
4462;SDS011;2244;50.200;8.220;2023-02-21T09:32:34;21.10;;;9.50;;
4462;SDS011;2244;50.200;8.220;2023-02-21T09:35:02;18.93;;;9.53;;
4462;SDS011;2244;50.200;8.220;2023-02-21T09:37:30;18.00;;;8.47;;
4462;SDS011;2244;50.200;8.220;2023-02-21T09:39:58;15.77;;;7.93;;
4462;SDS011;2244;50.200;8.220;2023-02-21T09:42:27;17.27;;;7.70;;
4462;SDS011;2244;50.200;8.220;2023-02-21T09:44:54;15.97;;;8.03;;
4462;SDS011;2244;50.200;8.220;2023-02-21T09:47:26;14.80;;;7.33;;
4462;SDS011;2244;50.200;8.220;2023-02-21T09:49:57;22.25;;;9.50;;
4462;SDS011;2244;50.200;8.220;2023-02-21T09:52:35;15.40;;;7.70;;
4462;SDS011;2244;50.200;8.220;2023-02-21T09:55:07;17.37;;;7.80;;
4462;SDS011;2244;50.200;8.220;2023-02-21T09:57:35;16.57;;;7.40;;
4462;SDS011;2244;50.200;8.220;2023-02-21T10:00:28;16.10;;;7.77;;
4462;SDS011;2244;50.200;8.220;2023-02-21T10:02:38;15.00;;;7.60;;
4462;SDS011;2244;50.200;8.220;2023-02-21T10:07:35;24.77;;;12.17;;
4462;SDS011;2244;50.200;8.220;2023-02-21T10:10:11;23.43;;;11.73;;
4462;SDS011;2244;50.200;8.220;2023-02-21T10:12:42;23.90;;;12.30;;
4462;SDS011;2244;50.200;8.220;2023-02-21T10:17:56;28.23;;;12.03;;
4462;SDS011;2244;50.200;8.220;2023-02-21T10:20:31;47.80;;;19.73;;
4462;SDS011;2244;50.200;8.220;2023-02-21T10:22:55;26.20;;;12.50;;
4462;SDS011;2244;50.200;8.220;2023-02-21T10:25:24;21.90;;;11.47;;
4462;SDS011;2244;50.200;8.220;2023-02-21T10:27:54;22.13;;;11.20;;
4462;SDS011;2244;50.200;8.220;2023-02-21T10:30:35;24.27;;;14.37;;
4462;SDS011;2244;50.200;8.220;2023-02-21T10:33:03;21.00;;;10.40;;
4462;SDS011;2244;50.200;8.220;2023-02-21T10:35:33;21.70;;;10.70;;
4462;SDS011;2244;50.200;8.220;2023-02-21T10:38:06;20.17;;;11.27;;
4462;SDS011;2244;50.200;8.220;2023-02-21T10:40:41;20.90;;;10.03;;
4462;SDS011;2244;50.200;8.220;2023-02-21T10:45:54;22.00;;;11.17;;
4462;SDS011;2244;50.200;8.220;2023-02-21T10:48:21;20.30;;;10.23;;
4462;SDS011;2244;50.200;8.220;2023-02-21T10:50:51;21.17;;;11.10;;
4462;SDS011;2244;50.200;8.220;2023-02-21T10:53:37;23.93;;;13.83;;
4462;SDS011;2244;50.200;8.220;2023-02-21T10:58:34;16.57;;;8.87;;
4462;SDS011;2244;50.200;8.220;2023-02-21T11:01:29;21.40;;;10.90;;
4462;SDS011;2244;50.200;8.220;2023-02-21T11:03:34;19.57;;;9.13;;
4462;SDS011;2244;50.200;8.220;2023-02-21T11:06:01;19.67;;;10.80;;
4462;SDS011;2244;50.200;8.220;2023-02-21T11:08:40;18.10;;;9.10;;
4462;SDS011;2244;50.200;8.220;2023-02-21T11:10:58;23.73;;;11.40;;
4462;SDS011;2244;50.200;8.220;2023-02-21T11:13:25;21.57;;;13.60;;
4462;SDS011;2244;50.200;8.220;2023-02-21T11:16:14;25.90;;;18.10;;
4462;SDS011;2244;50.200;8.220;2023-02-21T11:18:40;27.67;;;19.70;;
4462;SDS011;2244;50.200;8.220;2023-02-21T11:21:17;27.30;;;15.33;;
4462;SDS011;2244;50.200;8.220;2023-02-21T11:23:56;61.03;;;55.47;;
4462;SDS011;2244;50.200;8.220;2023-02-21T11:26:26;67.30;;;60.70;;
4462;SDS011;2244;50.200;8.220;2023-02-21T11:28:53;98.73;;;90.87;;
4462;SDS011;2244;50.200;8.220;2023-02-21T11:31:25;130.70;;;120.20;;
4462;SDS011;2244;50.200;8.220;2023-02-21T11:33:57;24.87;;;16.00;;
4462;SDS011;2244;50.200;8.220;2023-02-21T11:36:26;208.13;;;192.03;;
4462;SDS011;2244;50.200;8.220;2023-02-21T11:39:02;139.77;;;128.50;;
4462;SDS011;2244;50.200;8.220;2023-02-21T11:41:44;129.60;;;119.50;;
4462;SDS011;2244;50.200;8.220;2023-02-21T11:44:30;89.23;;;81.13;;
4462;SDS011;2244;50.200;8.220;2023-02-21T11:47:13;145.33;;;133.93;;
4462;SDS011;2244;50.200;8.220;2023-02-21T11:50:00;153.00;;;140.90;;
4462;SDS011;2244;50.200;8.220;2023-02-21T11:52:34;117.63;;;108.67;;
4462;SDS011;2244;50.200;8.220;2023-02-21T11:55:02;26.43;;;17.07;;
4462;SDS011;2244;50.200;8.220;2023-02-21T12:00:02;280.57;;;259.80;;
4462;SDS011;2244;50.200;8.220;2023-02-21T12:02:38;120.60;;;111.00;;
4462;SDS011;2244;50.200;8.220;2023-02-21T12:07:44;172.00;;;158.77;;
4462;SDS011;2244;50.200;8.220;2023-02-21T12:12:50;21.00;;;14.60;;
4462;SDS011;2244;50.200;8.220;2023-02-21T12:20:38;189.10;;;173.67;;
4462;SDS011;2244;50.200;8.220;2023-02-21T12:23:22;50.13;;;45.73;;
4462;SDS011;2244;50.200;8.220;2023-02-21T12:25:54;237.70;;;220.30;;
4462;SDS011;2244;50.200;8.220;2023-02-21T12:33:50;154.17;;;142.57;;
4462;SDS011;2244;50.200;8.220;2023-02-21T12:36:25;83.43;;;76.13;;
4462;SDS011;2244;50.200;8.220;2023-02-21T12:38:53;170.97;;;158.10;;
4462;SDS011;2244;50.200;8.220;2023-02-21T12:41:37;136.60;;;125.80;;
4462;SDS011;2244;50.200;8.220;2023-02-21T12:44:05;49.03;;;44.60;;
4462;SDS011;2244;50.200;8.220;2023-02-21T12:49:03;69.47;;;62.63;;
4462;SDS011;2244;50.200;8.220;2023-02-21T12:51:35;144.33;;;132.77;;
4462;SDS011;2244;50.200;8.220;2023-02-21T12:54:00;23.30;;;16.93;;
4462;SDS011;2244;50.200;8.220;2023-02-21T12:56:30;261.47;;;241.47;;
4462;SDS011;2244;50.200;8.220;2023-02-21T12:59:01;320.27;;;296.43;;
4462;SDS011;2244;50.200;8.220;2023-02-21T13:01:27;81.83;;;74.70;;
4462;SDS011;2244;50.200;8.220;2023-02-21T13:04:15;106.23;;;96.33;;
4462;SDS011;2244;50.200;8.220;2023-02-21T13:06:56;14.60;;;8.40;;
4462;SDS011;2244;50.200;8.220;2023-02-21T13:09:30;69.33;;;63.20;;
4462;SDS011;2244;50.200;8.220;2023-02-21T13:12:03;273.27;;;254.17;;
4462;SDS011;2244;50.200;8.220;2023-02-21T13:14:46;232.93;;;214.83;;
4462;SDS011;2244;50.200;8.220;2023-02-21T13:17:13;196.07;;;182.00;;
4462;SDS011;2244;50.200;8.220;2023-02-21T13:19:44;89.67;;;79.77;;
4462;SDS011;2244;50.200;8.220;2023-02-21T13:25:06;193.77;;;180.13;;
4462;SDS011;2244;50.200;8.220;2023-02-21T13:27:47;17.77;;;11.13;;
4462;SDS011;2244;50.200;8.220;2023-02-21T13:30:23;242.70;;;224.57;;
4462;SDS011;2244;50.200;8.220;2023-02-21T13:32:54;105.83;;;97.00;;
4462;SDS011;2244;50.200;8.220;2023-02-21T13:35:31;130.40;;;119.47;;
4462;SDS011;2244;50.200;8.220;2023-02-21T13:37:54;206.37;;;190.90;;
4462;SDS011;2244;50.200;8.220;2023-02-21T13:40:23;193.33;;;179.03;;
4462;SDS011;2244;50.200;8.220;2023-02-21T13:45:26;128.33;;;118.27;;
4462;SDS011;2244;50.200;8.220;2023-02-21T13:50:39;237.20;;;218.03;;
4462;SDS011;2244;50.200;8.220;2023-02-21T13:55:38;293.67;;;271.30;;
4462;SDS011;2244;50.200;8.220;2023-02-21T14:00:47;199.27;;;184.90;;
4462;SDS011;2244;50.200;8.220;2023-02-21T14:08:34;208.87;;;192.33;;
4462;SDS011;2244;50.200;8.220;2023-02-21T14:21:15;232.80;;;215.70;;
4462;SDS011;2244;50.200;8.220;2023-02-21T14:23:48;217.67;;;201.70;;
4462;SDS011;2244;50.200;8.220;2023-02-21T14:26:33;17.00;;;9.50;;
4462;SDS011;2244;50.200;8.220;2023-02-21T14:34:10;61.30;;;56.10;;
4462;SDS011;2244;50.200;8.220;2023-02-21T14:36:38;428.63;;;395.93;;
4462;SDS011;2244;50.200;8.220;2023-02-21T14:39:07;216.93;;;200.73;;
4462;SDS011;2244;50.200;8.220;2023-02-21T14:41:38;473.90;;;438.40;;
4462;SDS011;2244;50.200;8.220;2023-02-21T14:46:53;236.63;;;218.40;;
4462;SDS011;2244;50.200;8.220;2023-02-21T14:52:09;256.53;;;236.87;;
4462;SDS011;2244;50.200;8.220;2023-02-21T14:57:26;169.33;;;155.87;;
4462;SDS011;2244;50.200;8.220;2023-02-21T15:10:17;286.77;;;263.83;;
4462;SDS011;2244;50.200;8.220;2023-02-21T15:12:45;350.10;;;323.67;;
4462;SDS011;2244;50.200;8.220;2023-02-21T15:15:26;217.23;;;199.67;;
4462;SDS011;2244;50.200;8.220;2023-02-21T15:17:55;234.77;;;217.70;;
4462;SDS011;2244;50.200;8.220;2023-02-21T15:20:23;46.70;;;41.10;;
4462;SDS011;2244;50.200;8.220;2023-02-21T15:22:54;224.60;;;206.73;;
4462;SDS011;2244;50.200;8.220;2023-02-21T15:25:22;270.03;;;248.57;;
4462;SDS011;2244;50.200;8.220;2023-02-21T15:27:52;228.80;;;210.50;;
4462;SDS011;2244;50.200;8.220;2023-02-21T15:30:24;241.27;;;222.37;;
4462;SDS011;2244;50.200;8.220;2023-02-21T15:32:53;100.80;;;92.10;;
4462;SDS011;2244;50.200;8.220;2023-02-21T15:35:21;213.67;;;197.13;;
4462;SDS011;2244;50.200;8.220;2023-02-21T15:37:49;244.63;;;225.60;;
4462;SDS011;2244;50.200;8.220;2023-02-21T15:40:18;165.37;;;152.27;;
4462;SDS011;2244;50.200;8.220;2023-02-21T15:42:46;224.40;;;207.90;;
4462;SDS011;2244;50.200;8.220;2023-02-21T15:45:21;194.10;;;179.70;;
4462;SDS011;2244;50.200;8.220;2023-02-21T15:47:49;215.77;;;198.83;;
4462;SDS011;2244;50.200;8.220;2023-02-21T15:50:20;330.30;;;304.23;;
4462;SDS011;2244;50.200;8.220;2023-02-21T15:52:46;243.33;;;222.27;;
4462;SDS011;2244;50.200;8.220;2023-02-21T16:00:34;260.97;;;241.47;;
4462;SDS011;2244;50.200;8.220;2023-02-21T16:05:48;170.80;;;157.20;;
4462;SDS011;2244;50.200;8.220;2023-02-21T16:08:15;86.70;;;79.10;;
4462;SDS011;2244;50.200;8.220;2023-02-21T16:10:43;234.73;;;217.23;;
4462;SDS011;2244;50.200;8.220;2023-02-21T16:13:11;154.60;;;141.07;;
4462;SDS011;2244;50.200;8.220;2023-02-21T16:15:39;415.07;;;384.57;;
4462;SDS011;2244;50.200;8.220;2023-02-21T16:18:09;341.83;;;316.90;;
4462;SDS011;2244;50.200;8.220;2023-02-21T16:20:39;235.30;;;217.03;;
4462;SDS011;2244;50.200;8.220;2023-02-21T16:28:35;327.07;;;303.13;;
4462;SDS011;2244;50.200;8.220;2023-02-21T16:31:04;307.53;;;285.30;;
4462;SDS011;2244;50.200;8.220;2023-02-21T16:33:32;428.73;;;396.67;;
4462;SDS011;2244;50.200;8.220;2023-02-21T16:36:00;312.13;;;287.83;;
4462;SDS011;2244;50.200;8.220;2023-02-21T16:38:29;251.53;;;233.03;;
4462;SDS011;2244;50.200;8.220;2023-02-21T16:40:56;282.07;;;261.17;;
4462;SDS011;2244;50.200;8.220;2023-02-21T16:43:25;193.67;;;178.73;;
4462;SDS011;2244;50.200;8.220;2023-02-21T16:45:54;218.67;;;201.93;;
4462;SDS011;2244;50.200;8.220;2023-02-21T16:48:27;193.10;;;178.87;;
4462;SDS011;2244;50.200;8.220;2023-02-21T16:50:52;155.60;;;143.63;;
4462;SDS011;2244;50.200;8.220;2023-02-21T16:53:20;247.23;;;229.00;;
4462;SDS011;2244;50.200;8.220;2023-02-21T16:55:48;203.80;;;189.03;;
4462;SDS011;2244;50.200;8.220;2023-02-21T16:58:20;226.30;;;209.17;;
4462;SDS011;2244;50.200;8.220;2023-02-21T17:00:57;222.40;;;203.47;;
4462;SDS011;2244;50.200;8.220;2023-02-21T17:03:25;137.57;;;127.40;;
4462;SDS011;2244;50.200;8.220;2023-02-21T17:05:55;300.60;;;277.27;;